Blairsburg, Iowa
Current Conditions -  °F | °C
As of 1:55 AM on Friday 31 Oct 2014 (Local Time) from KEBS Reporting Station
Overcast Overcast  
Wind Chill: 23°   Ceiling: 3700
Heat Index: 36°   Visibility: 10mi
Dew Point: 23°   Wind: 26mph
Humidity: 60%   Direction: 330°NNW
Pressure: 30.33"   Gusts: 33mph
Location:  42.48°N, 93.64°W
Report Text: KEBS 310655Z AUTO 33023G29KT 10SM OVC037 02/M05 A3033 RMK AO2
Loading
Personal Weather Stations






























Interactive Weather Map
Tropical Storm Tracking
New forecast layout! Learn more

10-Day Weather Forecast

Advertisements
Track Severe Weather on mobile